KMAF/MAF METAR and TAF weather

Enter ICAO airport designator
Station Type Date Time Source
KMAF METAR 2019/04/25 11:53 UTC NOAA

KMAF 251153Z 24006KT 10SM CLR 11/10 A2992 RMK AO2 SLP105 70007 T01110100 10128 20106 53004


Station Type Date Time Source
KMAF Decoded METAR 2019/04/25 11:53 UTC NOAA

MIDLAND INTERNATIONAL AIRPORT , TX, United States (KMAF) 31-56N 102-12W 872M
Apr 25, 2019 - 07:53 AM EDT / 2019.04.25 1153 UTC
Wind: from the WSW (240 degrees) at 7 MPH (6 KT):0
Visibility: 10 mile(s):0
Sky conditions: clear
Temperature: 52.0 F (11.1 C)
Dew Point: 50.0 F (10.0 C)
Relative Humidity: 92%
Pressure (altimeter): 29.92 in. Hg (1013 hPa)
Pressure tendency: 0.01 inches (0.4 hPa) higher than three hours ago
ob: KMAF 251153Z 24006KT 10SM CLR 11/10 A2992 RMK AO2 SLP105 70007 T01110100 10128 20106 53004
cycle: 12

Station Type Date Time Source
KMAF TAF 2019/04/25 12:24 UTC NOAA

TAF KMAF 251120Z 2512/2612 22007KT P6SM SKC
FM252100 34010KT P6SM FEW080
FM260300 04011KT P6SM SKC

Example: see airport list